CET,Max TemperatureF,Mean TemperatureF,Min TemperatureF,Max Dew PointF,MeanDew PointF,Min DewpointF,Max Humidity, Mean Humidity, Min Humidity, Max Sea Level PressureIn, Mean Sea Level PressureIn, Min Sea Level PressureIn, Max VisibilityMiles, Mean VisibilityMiles, Min VisibilityMiles, Max Wind SpeedMPH, Mean Wind SpeedMPH, Max Gust SpeedMPH,PrecipitationIn, CloudCover, Events, WindDirDegrees
2012-10-1,62,56,50,54,51,45,88,83,59,30.01,29.93,29.89,17,7,6,15,11,,0.02,8,Rain,198
2012-10-2,63,59,55,55,53,50,94,84,62,29.92,29.88,29.83,19,7,4,18,12,,0.00,5,Rain,201
2012-10-3,58,54,51,54,51,46,94,88,77,29.83,29.72,29.68,19,7,4,21,12,32,0.28,6,Rain,200
2012-10-4,57,52,46,52,48,43,100,88,55,29.88,29.70,29.59,19,6,4,16,10,,0.08,5,Rain,225
2012-10-5,61,53,45,57,49,46,100,86,72,29.86,29.69,29.42,19,6,3,31,10,47,0.39,5,Rain,217
2012-10-6,58,50,41,50,46,40,100,87,57,29.95,29.81,29.71,19,7,5,13,8,,0.08,6,Rain,252
2012-10-7,57,48,38,46,43,39,100,81,55,30.19,30.06,29.95,19,7,6,18,8,,0.00,4,Rain,272
2012-10-8,55,45,35,46,40,36,100,86,54,30.20,30.07,29.89,19,6,0,10,6,,0.00,3,Fog,221
2012-10-9,56,44,32,45,40,34,100,82,52,30.01,29.93,29.83,19,7,1,15,5,,0.00,5,,285
2012-10-10,55,45,35,46,42,36,100,86,60,30.01,29.99,29.98,16,6,0,10,4,,0.01,6,Fog-Rain,266
2012-10-11,56,44,32,45,39,32,100,83,48,30.01,29.89,29.77,16,5,0,12,4,,0.00,1,Fog,119
2012-10-12,57,50,43,55,45,39,100,89,78,29.77,29.65,29.59,14,6,1,17,10,,0.51,6,Rain,151
2012-10-13,51,46,41,50,45,41,100,92,82,29.78,29.69,29.50,15,7,3,13,9,,0.24,6,Rain,183
2012-10-14,52,48,44,46,44,42,100,86,66,29.50,29.43,29.39,17,6,3,22,13,28,0.00,6,Rain,193
2012-10-15,54,50,45,48,43,41,100,79,52,29.65,29.53,29.39,19,6,3,17,12,,0.08,5,Rain,219
2012-10-16,54,50,46,49,45,43,93,83,69,29.70,29.61,29.56,19,7,3,20,14,,0.04,5,Rain,195
2012-10-17,57,50,44,54,48,43,100,88,76,29.75,29.69,29.65,19,7,6,14,10,,0.02,6,Rain,178
2012-10-18,63,59,55,57,55,53,100,86,71,29.81,29.72,29.65,11,6,1,15,8,,0.02,6,Fog-Rain,167
2012-10-19,68,60,51,59,56,53,100,87,58,29.89,29.82,29.77,19,6,0,9,4,,0.00,4,Fog-Rain,170
2012-10-20,63,58,53,59,55,52,100,88,69,30.12,29.98,29.86,19,7,6,16,6,,0.00,7,Rain,219
2012-10-21,56,54,52,55,54,53,100,96,89,30.11,30.07,30.04,10,5,0,13,8,,0.00,8,Fog,42
2012-10-22,66,60,55,59,57,54,100,93,72,30.25,30.15,30.06,6,2,0,9,6,,0.00,7,Fog,95
2012-10-23,57,55,53,55,53,52,100,95,82,30.30,30.26,30.24,4,2,1,9,7,,0.08,7,,88
2012-10-24,54,52,50,52,51,50,100,94,82,30.27,30.16,30.09,9,4,1,8,5,,0.00,7,Rain,73
2012-10-25,53,48,44,52,47,39,100,89,69,30.10,30.00,29.95,19,6,1,15,5,24,0.01,7,Rain,305
2012-10-26,42,35,28,39,28,21,93,72,45,30.02,29.91,29.71,19,7,6,10,6,,0.00,4,Rain,48
2012-10-27,46,37,28,37,32,27,100,84,54,29.97,29.79,29.68,17,6,1,14,6,,0.01,5,Rain,358
2012-10-28,49,40,30,41,35,28,100,83,60,29.98,29.94,29.89,16,6,3,15,7,,0.00,4,Rain,215
2012-10-29,47,43,39,46,40,32,100,89,60,29.89,29.74,29.59,16,6,2,18,15,,0.28,7,Rain,204
2012-10-30,49,42,34,45,40,34,100,90,62,29.62,29.58,29.53,19,6,1,12,5,,0.00,4,Fog-Rain,237
2012-10-31,52,45,38,46,41,37,100,84,67,29.54,29.41,29.27,19,6,3,17,10,,0.00,5,,173